Skip Navigation LinksHome page > Tools > METAR decoder Skip Navigation Links

METAR decoder

Settings

METAR

Chicago O'Hare Intl, Chicago

For information only: do not use for flight planning or navigation.
Latest weather
Observation time Thursday, October 28, 2021 4:51 AM CDT
Local time Thursday, October 28, 2021 5:20 AM CDT
Flight conditions Marginal Visual Meteorological Conditions
Winds
Wind direction Southeast (130°)
Wind speed 6 mph
Visibility 10 mi.
Sky condition
Ceiling 1,600 ft. overcast
Cloud layer overcast 1,600 ft.
Temperature 50°F
Dewpoint 45°F
Altimeter 29.72 in.Hg
Derived measurements
Relative humidity 83%
Wind chill 48°F
Density altitude 448 ft.
Sea-level pressure 29.73 in.Hg
Remarks
Automated weather observing station with precipitation discriminator.
METAR KORD 280951Z 13005KT 10SM OVC016 10/07 A2972 RMK AO2 SLP067 T01000072

InnerDrive.Weather 4.0.6770.0 Release CLR 4.0.30319.42000
Copyright ©2018 Inner Drive Technology. All rights reserved. Portions Copyright ©1986-2018 David Braverman.

Find weather

Site navigation


Skip Navigation Links

Place info

Page info

PayPal - The safer, easier way to pay online!

Return home.

Copyright ©2021 Inner Drive Technology. Purveyors of fine, hand-crafted computer software. Page printed 2021-10-28T10:20:45 UTC.